createdAt,value
2018-09-13T00:00:46.302Z,27.57
2018-09-13T00:03:14.849Z,30.10
2018-09-13T00:05:43.386Z,28.80
2018-09-13T00:08:11.812Z,30.83
2018-09-13T00:10:40.257Z,35.30
2018-09-13T00:13:08.672Z,25.50
2018-09-13T00:15:37.072Z,26.17
2018-09-13T00:18:05.514Z,29.53
2018-09-13T00:20:33.935Z,25.67
2018-09-13T00:23:02.335Z,22.17
2018-09-13T00:25:31.213Z,18.50
2018-09-13T00:27:59.683Z,20.47
2018-09-13T00:30:28.137Z,21.47
2018-09-13T00:32:56.564Z,21.43
2018-09-13T00:35:24.949Z,21.97
2018-09-13T00:37:53.360Z,21.97
2018-09-13T00:40:21.772Z,22.50
2018-09-13T00:42:50.181Z,20.40
2018-09-13T00:45:18.590Z,19.57
2018-09-13T00:47:47.036Z,21.10
2018-09-13T00:50:15.610Z,21.30
2018-09-13T00:52:44.128Z,24.30
2018-09-13T00:55:12.907Z,20.43
2018-09-13T00:57:41.328Z,19.23
2018-09-13T01:00:09.784Z,24.20
2018-09-13T01:02:38.184Z,27.23
2018-09-13T01:05:06.795Z,23.77
2018-09-13T01:07:35.217Z,31.17
2018-09-13T01:10:03.670Z,21.97
2018-09-13T01:12:32.044Z,23.73
2018-09-13T01:15:00.411Z,27.77
2018-09-13T01:17:28.814Z,22.47
2018-09-13T01:19:57.167Z,24.60
2018-09-13T01:22:25.551Z,22.30
2018-09-13T01:24:55.343Z,25.20
2018-09-13T01:27:24.578Z,24.40
2018-09-13T01:29:52.960Z,24.13
2018-09-13T01:32:21.664Z,28.70
2018-09-13T01:34:50.043Z,26.67
2018-09-13T01:37:18.420Z,26.00
2018-09-13T01:39:46.820Z,23.47
2018-09-13T01:42:15.316Z,28.53
2018-09-13T01:44:43.688Z,26.50
2018-09-13T01:47:12.099Z,27.20
2018-09-13T01:49:40.548Z,29.97
2018-09-13T01:52:09.220Z,23.80
2018-09-13T01:54:38.196Z,34.90
2018-09-13T01:57:07.147Z,25.40
2018-09-13T01:59:35.539Z,33.53
2018-09-13T02:02:03.969Z,29.80
2018-09-13T02:04:32.391Z,29.53
2018-09-13T02:07:00.896Z,27.53
2018-09-13T02:09:29.286Z,34.10
2018-09-13T02:11:57.639Z,32.57
2018-09-13T02:14:26.025Z,43.03
2018-09-13T02:16:54.396Z,33.27
2018-09-13T02:19:22.799Z,31.67
2018-09-13T02:21:51.174Z,33.10
2018-09-13T02:24:19.589Z,38.60
2018-09-13T02:26:47.961Z,35.73
2018-09-13T02:29:16.352Z,37.20
2018-09-13T02:31:44.790Z,34.73
2018-09-13T02:34:13.187Z,40.97
2018-09-13T02:36:41.566Z,36.07
2018-09-13T02:39:10.821Z,38.53
2018-09-13T02:41:39.436Z,33.47
2018-09-13T02:44:08.951Z,35.33
2018-09-13T02:46:37.896Z,37.07
2018-09-13T02:49:06.371Z,36.80
2018-09-13T02:51:34.713Z,38.33
2018-09-13T02:54:03.203Z,41.73
2018-09-13T02:56:31.606Z,40.97
2018-09-13T02:59:00.025Z,40.10
2018-09-13T03:01:28.410Z,38.87
2018-09-13T03:03:56.800Z,38.83
2018-09-13T03:06:25.194Z,44.03
2018-09-13T03:08:53.571Z,38.70
2018-09-13T03:11:21.947Z,39.17
2018-09-13T03:13:50.607Z,43.43
2018-09-13T03:16:18.984Z,39.83
2018-09-13T03:18:47.376Z,39.07
2018-09-13T03:21:15.735Z,42.83
2018-09-13T03:23:44.211Z,39.07
2018-09-13T03:26:12.568Z,44.10
2018-09-13T03:28:40.987Z,36.70
2018-09-13T03:31:09.379Z,37.87
2018-09-13T03:33:38.124Z,41.37
2018-09-13T03:36:06.521Z,41.63
2018-09-13T03:38:34.926Z,39.07
2018-09-13T03:41:03.313Z,42.30
2018-09-13T03:43:31.711Z,39.83
2018-09-13T03:46:00.099Z,36.67
2018-09-13T03:48:28.539Z,38.13
2018-09-13T03:50:56.954Z,33.97
2018-09-13T03:53:25.382Z,48.63
2018-09-13T03:55:53.797Z,41.00
2018-09-13T03:58:22.188Z,54.00
2018-09-13T04:00:50.644Z,48.93
2018-09-13T04:03:19.551Z,46.27
2018-09-13T04:05:48.095Z,45.83
2018-09-13T04:08:16.516Z,48.37
2018-09-13T04:10:44.936Z,43.00
2018-09-13T04:13:13.388Z,50.00
2018-09-13T04:15:41.816Z,43.13
2018-09-13T04:18:10.189Z,42.47
2018-09-13T04:20:38.675Z,50.03
2018-09-13T04:23:07.230Z,44.10
2018-09-13T04:25:35.668Z,49.50
2018-09-13T04:28:04.086Z,49.27
2018-09-13T04:30:32.536Z,49.60
2018-09-13T04:33:00.936Z,43.63
2018-09-13T04:35:29.351Z,47.90
2018-09-13T04:37:57.726Z,41.97
2018-09-13T04:40:26.160Z,43.97
2018-09-13T04:42:54.600Z,43.80
2018-09-13T04:45:22.999Z,37.13
2018-09-13T04:47:51.435Z,40.93
2018-09-13T04:50:19.837Z,45.67
2018-09-13T04:52:48.231Z,41.60
2018-09-13T04:55:16.919Z,45.00
2018-09-13T04:57:45.500Z,39.30
2018-09-13T05:00:14.003Z,45.50
2018-09-13T05:02:42.482Z,42.43
2018-09-13T05:05:11.010Z,42.90
2018-09-13T05:07:39.395Z,49.17
2018-09-13T05:10:08.017Z,43.40
2018-09-13T05:12:36.428Z,49.00
2018-09-13T05:15:04.936Z,42.20
2018-09-13T05:17:33.311Z,44.50
2018-09-13T05:20:01.935Z,45.70
2018-09-13T05:22:30.319Z,43.27
2018-09-13T05:24:58.735Z,46.17
2018-09-13T05:27:27.104Z,47.63
2018-09-13T05:29:55.873Z,44.00
2018-09-13T05:32:24.249Z,50.47
2018-09-13T05:34:53.134Z,46.90
2018-09-13T05:37:22.703Z,47.73
2018-09-13T05:39:51.095Z,47.23
2018-09-13T05:42:19.480Z,48.70
2018-09-13T05:44:47.887Z,44.33
2018-09-13T05:47:16.266Z,51.70
2018-09-13T05:49:44.734Z,48.67
2018-09-13T05:52:13.165Z,48.60
2018-09-13T05:54:41.816Z,51.53
2018-09-13T05:57:10.216Z,48.03
2018-09-13T05:59:38.650Z,49.70
2018-09-13T06:02:07.064Z,51.30
2018-09-13T06:04:35.454Z,51.77
2018-09-13T06:07:03.916Z,44.57
2018-09-13T06:09:32.581Z,54.87
2018-09-13T06:12:01.012Z,42.47
2018-09-13T06:14:29.463Z,46.60
2018-09-13T06:16:58.031Z,49.70
2018-09-13T06:19:26.485Z,53.10
2018-09-13T06:21:55.109Z,55.60
2018-09-13T06:24:23.528Z,52.57
2018-09-13T06:26:52.094Z,47.67
2018-09-13T06:29:20.551Z,46.83
2018-09-13T06:31:49.011Z,49.10
2018-09-13T06:34:17.405Z,47.37
2018-09-13T06:36:45.839Z,47.17
2018-09-13T06:39:14.270Z,45.70
2018-09-13T06:41:42.719Z,41.50
2018-09-13T06:44:11.292Z,35.20
2018-09-13T06:46:40.344Z,36.77
2018-09-13T06:49:08.922Z,43.87
2018-09-13T06:51:37.379Z,36.60
2018-09-13T06:54:05.977Z,39.83
2018-09-13T06:56:34.416Z,36.70
2018-09-13T06:59:02.907Z,39.47
2018-09-13T07:01:31.362Z,37.43
2018-09-13T07:03:59.786Z,35.70
2018-09-13T07:06:28.256Z,39.83
2018-09-13T07:08:56.756Z,35.00
2018-09-13T07:11:25.201Z,33.33
2018-09-13T07:13:53.875Z,35.93
2018-09-13T07:16:22.292Z,36.43
2018-09-13T07:18:50.724Z,32.63
2018-09-13T07:21:19.192Z,41.60
2018-09-13T07:23:47.658Z,31.87
2018-09-13T07:26:16.123Z,28.97
2018-09-13T07:28:44.593Z,30.63
2018-09-13T07:31:13.018Z,33.77
2018-09-13T07:33:41.425Z,30.10
2018-09-13T07:36:10.012Z,27.10
2018-09-13T07:38:38.397Z,28.20
2018-09-13T07:41:06.840Z,32.17
2018-09-13T07:43:35.262Z,27.43
2018-09-13T07:46:03.683Z,25.97
2018-09-13T07:48:32.344Z,26.30
2018-09-13T07:51:00.766Z,21.93
2018-09-13T07:53:29.178Z,22.30
2018-09-13T07:55:57.612Z,22.50
2018-09-13T07:58:26.007Z,24.00
2018-09-13T08:00:54.610Z,25.03
2018-09-13T08:03:23.054Z,20.07
2018-09-13T08:05:51.551Z,21.40
2018-09-13T08:08:19.945Z,23.30
2018-09-13T08:10:48.340Z,20.80
2018-09-13T08:13:16.751Z,20.43
2018-09-13T08:15:45.358Z,20.17
2018-09-13T08:18:13.764Z,19.27
2018-09-13T08:20:42.422Z,20.00
2018-09-13T08:23:10.864Z,19.53
2018-09-13T08:25:39.273Z,17.13
2018-09-13T08:28:10.712Z,18.50
2018-09-13T08:30:39.116Z,18.30
2018-09-13T08:33:07.585Z,16.60
2018-09-13T08:35:36.072Z,19.27
2018-09-13T08:38:04.549Z,15.70
2018-09-13T08:40:33.128Z,18.43
2018-09-13T08:43:01.668Z,16.30
2018-09-13T08:45:30.072Z,21.53
2018-09-13T08:47:58.539Z,19.10
2018-09-13T08:50:27.036Z,18.13
2018-09-13T08:52:55.548Z,15.77
2018-09-13T08:55:23.989Z,16.97
2018-09-13T08:57:52.452Z,16.40
2018-09-13T09:00:20.976Z,19.00
2018-09-13T09:02:49.464Z,16.87
2018-09-13T09:05:18.353Z,19.10
2018-09-13T09:07:46.939Z,19.00
2018-09-13T09:10:15.434Z,17.60
2018-09-13T09:12:43.852Z,14.90
2018-09-13T09:15:12.353Z,16.77
2018-09-13T09:17:41.436Z,15.27
2018-09-13T09:20:09.966Z,16.87
2018-09-13T09:22:38.612Z,16.57
2018-09-13T09:25:07.268Z,15.20
2018-09-13T09:27:35.793Z,16.20
2018-09-13T09:30:04.791Z,15.70
2018-09-13T09:32:33.478Z,16.93
2018-09-13T09:35:02.098Z,18.37
2018-09-13T09:37:34.553Z,18.00
2018-09-13T09:40:02.976Z,16.20
2018-09-13T09:42:31.466Z,14.57
2018-09-13T09:44:59.872Z,17.47
2018-09-13T09:47:28.353Z,21.50
2018-09-13T09:49:56.933Z,22.47
2018-09-13T09:52:25.494Z,20.80
2018-09-13T09:54:54.033Z,20.80
2018-09-13T09:57:22.546Z,23.77
2018-09-13T09:59:51.011Z,23.93
2018-09-13T10:02:21.763Z,19.13
2018-09-13T10:04:50.674Z,21.83
2018-09-13T10:07:19.778Z,24.30
2018-09-13T10:09:48.592Z,24.57
2018-09-13T10:12:17.278Z,22.77
2018-09-13T10:14:51.023Z,24.03
2018-09-13T10:17:24.757Z,19.60
2018-09-13T10:19:58.488Z,21.47
2018-09-13T10:22:32.613Z,19.07
2018-09-13T10:25:06.555Z,19.50
2018-09-13T10:27:40.545Z,16.63
2018-09-13T10:30:14.391Z,14.77
2018-09-13T10:32:48.294Z,15.20
2018-09-13T10:35:22.172Z,14.03
2018-09-13T10:37:56.152Z,15.83
2018-09-13T10:40:30.119Z,14.90
2018-09-13T10:43:04.130Z,19.50
2018-09-13T10:45:38.155Z,15.07
2018-09-13T10:48:12.136Z,18.10
2018-09-13T10:50:48.775Z,18.03
2018-09-13T10:53:22.712Z,17.40
2018-09-13T10:55:51.257Z,16.60
2018-09-13T10:58:19.707Z,20.20
2018-09-13T11:00:48.145Z,19.83
2018-09-13T11:03:16.633Z,22.30
2018-09-13T11:05:45.250Z,22.37
2018-09-13T11:08:13.671Z,22.87
2018-09-13T11:10:42.385Z,22.47
2018-09-13T11:13:16.872Z,25.30
2018-09-13T11:15:45.957Z,27.13
2018-09-13T11:18:14.417Z,29.70
2018-09-13T11:20:42.948Z,26.33
2018-09-13T11:23:11.372Z,28.40
2018-09-13T11:25:39.961Z,28.90
2018-09-13T11:28:08.435Z,26.63
2018-09-13T11:30:36.950Z,25.00
2018-09-13T11:33:05.396Z,27.63
2018-09-13T11:35:33.861Z,24.60
2018-09-13T11:38:02.330Z,27.07
2018-09-13T11:40:30.952Z,26.67
2018-09-13T11:42:59.257Z,23.57
2018-09-13T11:45:27.696Z,24.30
2018-09-13T11:47:56.540Z,22.80
2018-09-13T11:50:25.105Z,22.60
2018-09-13T11:52:53.601Z,23.23
2018-09-13T11:55:21.992Z,22.80
2018-09-13T11:57:50.534Z,24.27
2018-09-13T12:00:19.089Z,26.47
2018-09-13T12:02:47.511Z,24.47
2018-09-13T12:05:15.942Z,28.40
2018-09-13T12:07:44.644Z,28.57
2018-09-13T12:10:13.441Z,31.30
2018-09-13T12:12:41.954Z,28.97
2018-09-13T12:15:11.384Z,30.70
2018-09-13T12:17:39.977Z,33.13
2018-09-13T12:20:08.561Z,32.00
2018-09-13T12:22:37.639Z,34.57
2018-09-13T12:25:06.097Z,30.63
2018-09-13T12:27:35.002Z,29.20
2018-09-13T12:30:04.518Z,28.67
2018-09-13T12:32:33.981Z,28.70
2018-09-13T12:35:03.970Z,30.80
2018-09-13T12:37:32.472Z,30.47
2018-09-13T12:40:01.266Z,29.20
2018-09-13T12:42:29.949Z,33.07
2018-09-13T12:44:59.124Z,27.87
2018-09-13T12:47:27.760Z,24.63
2018-09-13T12:49:56.561Z,24.97
2018-09-13T12:52:25.014Z,23.60
2018-09-13T12:54:53.586Z,23.63
2018-09-13T12:57:22.882Z,24.97
2018-09-13T12:59:51.437Z,22.93
2018-09-13T13:02:20.173Z,23.67
2018-09-13T13:04:48.757Z,22.17
2018-09-13T13:07:17.424Z,22.00
2018-09-13T13:09:45.918Z,19.73
2018-09-13T13:12:14.900Z,22.33
2018-09-13T13:14:43.337Z,21.73
2018-09-13T13:17:11.878Z,21.97
2018-09-13T13:19:40.377Z,20.37
2018-09-13T13:22:09.199Z,20.57
2018-09-13T13:24:37.769Z,21.17
2018-09-13T13:27:06.294Z,20.70
2018-09-13T13:29:34.796Z,19.47
2018-09-13T13:32:03.596Z,18.00
2018-09-13T13:34:32.220Z,17.93
2018-09-13T13:37:00.682Z,19.97
2018-09-13T13:39:29.332Z,17.97
2018-09-13T13:41:57.861Z,21.40
2018-09-13T13:44:26.351Z,22.10
2018-09-13T13:46:54.990Z,23.63
2018-09-13T13:49:23.543Z,24.80
2018-09-13T13:51:52.121Z,23.30
2018-09-13T13:54:20.672Z,23.03
2018-09-13T13:56:49.104Z,21.37
2018-09-13T13:59:17.627Z,23.90
2018-09-13T14:01:46.233Z,22.43
2018-09-13T14:04:14.964Z,24.73
2018-09-13T14:06:43.440Z,20.70
2018-09-13T14:09:13.287Z,21.20
2018-09-13T14:11:41.942Z,22.40
2018-09-13T14:14:10.536Z,22.43
2018-09-13T14:16:39.233Z,20.50
2018-09-13T14:19:07.824Z,21.67
2018-09-13T14:21:36.412Z,21.47
2018-09-13T14:24:05.230Z,20.40
2018-09-13T14:26:33.992Z,17.53
2018-09-13T14:29:02.492Z,18.33
2018-09-13T14:31:30.995Z,18.13
2018-09-13T14:33:59.705Z,20.13
2018-09-13T14:36:28.084Z,20.20
2018-09-13T14:38:56.845Z,18.63
2018-09-13T14:41:25.389Z,17.10
2018-09-13T14:43:53.820Z,14.67
2018-09-13T14:46:22.436Z,15.87
2018-09-13T14:48:50.899Z,12.13
2018-09-13T14:51:19.352Z,11.17
2018-09-13T14:53:47.975Z,11.83
2018-09-13T14:56:16.482Z,11.23
2018-09-13T14:58:45.112Z,12.40
2018-09-13T15:01:13.556Z,12.60
2018-09-13T15:03:42.146Z,16.73
2018-09-13T15:06:10.766Z,15.03
2018-09-13T15:08:39.352Z,12.97
2018-09-13T15:11:07.989Z,14.47
2018-09-13T15:13:36.558Z,14.67
2018-09-13T15:16:06.388Z,16.07
2018-09-13T15:18:34.857Z,15.60
2018-09-13T15:21:03.518Z,12.50
2018-09-13T15:23:32.000Z,12.27
2018-09-13T15:26:00.700Z,13.90
2018-09-13T15:28:29.305Z,10.07
2018-09-13T15:30:57.870Z,10.90
2018-09-13T15:33:26.352Z,11.27
2018-09-13T15:35:54.922Z,13.80
2018-09-13T15:38:23.332Z,11.70
2018-09-13T15:40:51.912Z,10.70
2018-09-13T15:43:20.373Z,8.87
2018-09-13T15:45:49.398Z,11.37
2018-09-13T15:48:17.808Z,10.57
2018-09-13T15:50:46.663Z,9.03
2018-09-13T15:53:15.189Z,11.27
2018-09-13T15:55:43.867Z,11.23
2018-09-13T15:58:12.606Z,14.87
2018-09-13T16:00:41.190Z,12.00
2018-09-13T16:03:09.940Z,11.43
2018-09-13T16:05:38.521Z,11.73
2018-09-13T16:08:07.161Z,10.77
2018-09-13T16:10:35.796Z,11.33
2018-09-13T16:13:04.378Z,11.60
2018-09-13T16:15:32.789Z,11.30
2018-09-13T16:18:01.382Z,11.30
2018-09-13T16:20:30.273Z,13.20
2018-09-13T16:22:58.853Z,12.00
2018-09-13T16:25:27.499Z,11.50
2018-09-13T16:27:56.197Z,10.90
2018-09-13T16:30:25.099Z,13.73
2018-09-13T16:32:53.667Z,12.10
2018-09-13T16:35:22.254Z,10.93
2018-09-13T16:37:56.184Z,10.93
2018-09-13T16:40:30.281Z,10.70
2018-09-13T16:43:04.224Z,8.00
2018-09-13T16:45:33.104Z,8.50
2018-09-13T16:48:03.336Z,7.63
2018-09-13T16:50:31.819Z,10.40
2018-09-13T16:53:00.589Z,8.00
2018-09-13T16:55:29.315Z,8.23
2018-09-13T16:57:57.987Z,7.33
2018-09-13T17:00:27.134Z,7.30
2018-09-13T17:02:56.106Z,6.60
2018-09-13T17:05:24.629Z,5.97
2018-09-13T17:07:53.225Z,6.60
2018-09-13T17:10:21.704Z,6.13
2018-09-13T17:12:50.597Z,10.00
2018-09-13T17:15:19.334Z,7.70
2018-09-13T17:17:47.949Z,11.33
2018-09-13T17:20:16.614Z,10.53
2018-09-13T17:22:45.320Z,8.40
2018-09-13T17:25:14.094Z,7.10
2018-09-13T17:27:42.705Z,7.23
2018-09-13T17:30:11.341Z,8.53
2018-09-13T17:32:40.177Z,10.70
2018-09-13T17:35:08.917Z,12.70
2018-09-13T17:37:37.872Z,11.10
2018-09-13T17:40:06.545Z,10.77
2018-09-13T17:42:35.208Z,8.70
2018-09-13T17:45:04.258Z,7.27
2018-09-13T17:47:32.880Z,6.73
2018-09-13T17:50:01.407Z,8.47
2018-09-13T17:52:29.923Z,9.27
2018-09-13T17:54:58.433Z,8.00
2018-09-13T17:57:26.971Z,9.20
2018-09-13T17:59:55.387Z,10.37
2018-09-13T18:02:24.224Z,12.60
2018-09-13T18:04:52.967Z,11.13
2018-09-13T18:07:21.664Z,7.97
2018-09-13T18:09:50.501Z,10.10
2018-09-13T18:12:19.046Z,7.33
2018-09-13T18:14:47.698Z,10.60
2018-09-13T18:17:16.301Z,10.60
2018-09-13T18:19:45.012Z,8.93
2018-09-13T18:22:13.708Z,9.53
2018-09-13T18:24:42.424Z,9.13
2018-09-13T18:27:11.154Z,10.03
2018-09-13T18:29:39.875Z,11.23
2018-09-13T18:32:08.450Z,7.63
2018-09-13T18:34:37.169Z,8.80
2018-09-13T18:37:05.841Z,8.00
2018-09-13T18:39:34.477Z,7.60
2018-09-13T18:42:04.813Z,6.80
2018-09-13T18:44:33.728Z,8.80
2018-09-13T18:47:02.388Z,9.10
2018-09-13T18:49:31.054Z,11.03
2018-09-13T18:51:59.774Z,13.17
2018-09-13T18:54:28.556Z,10.97
2018-09-13T18:56:57.287Z,8.47
2018-09-13T18:59:26.064Z,12.07
2018-09-13T19:01:54.659Z,11.00
2018-09-13T19:04:23.410Z,14.03
2018-09-13T19:06:52.427Z,15.27
2018-09-13T19:09:21.123Z,9.07
2018-09-13T19:11:49.839Z,8.43
2018-09-13T19:14:18.499Z,10.40
2018-09-13T19:16:47.491Z,8.97
2018-09-13T19:19:16.264Z,11.70
2018-09-13T19:21:44.991Z,10.70
2018-09-13T19:24:13.845Z,11.70
2018-09-13T19:26:42.912Z,12.00
2018-09-13T19:29:11.646Z,13.30
2018-09-13T19:31:40.258Z,12.97
2018-09-13T19:34:09.257Z,13.97
2018-09-13T19:36:37.934Z,14.67
2018-09-13T19:39:09.234Z,13.40
2018-09-13T19:41:37.944Z,16.63
2018-09-13T19:44:06.598Z,13.33
2018-09-13T19:46:35.334Z,14.40
2018-09-13T19:49:03.859Z,16.87
2018-09-13T19:51:32.585Z,15.73
2018-09-13T19:54:01.299Z,16.27
2018-09-13T19:56:29.895Z,15.40
2018-09-13T19:58:58.634Z,15.77
2018-09-13T20:01:27.255Z,17.00
2018-09-13T20:03:55.942Z,16.10
2018-09-13T20:06:24.500Z,15.80
2018-09-13T20:08:53.355Z,23.70
2018-09-13T20:11:22.011Z,22.53
2018-09-13T20:13:50.506Z,21.13
2018-09-13T20:16:19.112Z,19.83
2018-09-13T20:18:47.829Z,21.70
2018-09-13T20:21:16.755Z,19.43
2018-09-13T20:23:45.396Z,21.50
2018-09-13T20:26:14.085Z,19.50
2018-09-13T20:28:42.652Z,19.90
2018-09-13T20:31:11.313Z,21.57
2018-09-13T20:33:40.416Z,28.03
2018-09-13T20:36:09.105Z,23.87
2018-09-13T20:38:37.931Z,23.67
2018-09-13T20:41:06.715Z,19.77
2018-09-13T20:43:35.271Z,22.87
2018-09-13T20:46:03.920Z,26.50
2018-09-13T20:48:32.502Z,20.43
2018-09-13T20:51:01.147Z,20.80
2018-09-13T20:53:29.746Z,21.43
2018-09-13T20:55:58.314Z,22.63
2018-09-13T20:58:27.103Z,24.00
2018-09-13T21:00:55.835Z,21.10
2018-09-13T21:03:24.535Z,18.13
2018-09-13T21:05:53.189Z,23.50
2018-09-13T21:08:21.746Z,20.47
2018-09-13T21:10:50.360Z,24.20
2018-09-13T21:13:19.075Z,26.97
2018-09-13T21:15:47.855Z,21.60
2018-09-13T21:18:16.546Z,23.87
2018-09-13T21:20:45.243Z,25.73
2018-09-13T21:23:13.938Z,27.73
2018-09-13T21:25:42.599Z,30.17
2018-09-13T21:28:11.430Z,23.03
2018-09-13T21:30:40.165Z,23.40
2018-09-13T21:33:08.819Z,26.67
2018-09-13T21:35:37.455Z,23.27
2018-09-13T21:38:06.150Z,26.57
2018-09-13T21:40:34.911Z,32.00
2018-09-13T21:43:03.561Z,25.63
2018-09-13T21:45:32.241Z,31.00
2018-09-13T21:48:00.754Z,29.50
2018-09-13T21:50:29.341Z,27.70
2018-09-13T21:52:57.978Z,22.30
2018-09-13T21:55:26.677Z,20.70
2018-09-13T21:57:55.202Z,20.97
2018-09-13T22:00:23.929Z,16.43
2018-09-13T22:02:52.467Z,23.43
2018-09-13T22:05:21.040Z,17.20
2018-09-13T22:07:49.837Z,18.80
2018-09-13T22:10:18.562Z,14.33
2018-09-13T22:12:47.131Z,14.77
2018-09-13T22:15:15.716Z,14.17
2018-09-13T22:17:44.497Z,10.33
2018-09-13T22:20:13.132Z,15.10
2018-09-13T22:22:41.752Z,12.23
2018-09-13T22:25:10.244Z,14.80
2018-09-13T22:27:38.922Z,11.40
2018-09-13T22:30:07.831Z,11.27
2018-09-13T22:32:37.116Z,13.07
2018-09-13T22:35:05.849Z,12.20
2018-09-13T22:37:35.562Z,11.00
2018-09-13T22:40:04.350Z,14.17
2018-09-13T22:42:33.011Z,18.70
2018-09-13T22:45:02.531Z,14.27
2018-09-13T22:47:32.088Z,12.23
2018-09-13T22:50:00.696Z,11.50
2018-09-13T22:52:29.494Z,16.63
2018-09-13T22:54:58.253Z,13.67
2018-09-13T22:57:26.812Z,13.87
2018-09-13T22:59:55.460Z,12.83
2018-09-13T23:02:24.135Z,14.50
2018-09-13T23:04:53.053Z,16.03
2018-09-13T23:07:21.962Z,15.17
2018-09-13T23:09:50.701Z,10.00
2018-09-13T23:12:19.357Z,13.30
2018-09-13T23:14:48.033Z,13.33
2018-09-13T23:17:16.649Z,10.70
2018-09-13T23:19:45.303Z,13.03
2018-09-13T23:22:13.959Z,17.57
2018-09-13T23:24:42.519Z,14.63
2018-09-13T23:27:11.949Z,11.40
2018-09-13T23:29:40.744Z,10.50
2018-09-13T23:34:45.959Z,11.33
2018-09-13T23:37:14.751Z,10.10
2018-09-13T23:39:43.830Z,11.00
2018-09-13T23:42:12.242Z,10.60
2018-09-13T23:44:40.877Z,11.13
2018-09-13T23:47:09.598Z,18.43
2018-09-13T23:49:38.399Z,12.27
2018-09-13T23:52:07.064Z,9.73
2018-09-13T23:54:35.758Z,9.77
2018-09-13T23:57:04.555Z,7.30
2018-09-13T23:59:33.225Z,10.43
